Aniwa, Wisconsin
Current Conditions -  °F | °C
As of 1:15 PM on Monday 22 Dec 2014 (Local Time) from KAIG Reporting Station
Haze Haze  
Wind Chill: -5°   Ceiling: 300
Heat Index:   Visibility: 1mi
Dew Point:   Wind: 12mph
Humidity: 100%   Direction: 130°SE
Pressure: 29.75"   Gusts: NA
Location:  45.01°N, 89.21°W
Report Text: KAIG 221915Z AUTO 13010KT 1SM BR OVC003 00/00 A2975 RMK AO2 T10011001
Loading
Personal Weather Stations






























Interactive Weather Map New forecast layout! Learn more

10-Day Weather Forecast

Advertisements
Track Severe Weather on mobile